Time;durP1;ratioP1;P1;durP2;ratioP2;P2;SDS_P1;SDS_P2;PMS_P1;PMS_P2;Temp;Humidity;BMP_temperature;BMP_pressure;BME280_temperature;BME280_humidity;BME280_pressure;Samples;Min_cycle;Max_cycle;Signal;HPM_P1;HPM_P2
2022/10/08 00:02:26;;;;;;;18.83;10.55;;;;;;;11.79;84.68;101513.19;4993802;28;20074;-61
2022/10/08 00:04:51;;;;;;;21.05;10.68;;;;;;;11.72;85.04;101508.00;4994358;28;20030;-62
2022/10/08 00:07:16;;;;;;;19.73;10.88;;;;;;;11.70;85.00;101516.63;4993856;28;20088;-61
2022/10/08 00:09:42;;;;;;;19.33;10.35;;;;;;;11.65;85.49;101508.38;4993313;28;20026;-61
2022/10/08 00:12:07;;;;;;;20.38;10.05;;;;;;;11.66;85.34;101520.28;4993488;28;20033;-61
2022/10/08 00:14:32;;;;;;;20.52;10.25;;;;;;;11.61;85.07;101510.09;4993990;28;20031;-62
2022/10/08 00:16:57;;;;;;;22.60;10.98;;;;;;;11.68;85.06;101509.72;4994052;28;20581;-62
2022/10/08 00:19:23;;;;;;;23.25;11.00;;;;;;;11.69;85.07;101514.97;4993771;28;20406;-62
2022/10/08 00:21:52;;;;;;;23.30;10.70;;;;;;;11.74;84.84;101513.25;4993441;28;20054;-61
2022/10/08 00:24:18;;;;;;;18.52;10.75;;;;;;;11.74;85.37;101516.03;4993077;28;20400;-61
2022/10/08 00:26:44;;;;;;;20.20;10.20;;;;;;;11.78;84.85;101517.09;4993409;28;20057;-61
2022/10/08 00:29:12;;;;;;;17.77;10.88;;;;;;;11.77;84.78;101509.88;4992168;28;20120;-61
2022/10/08 00:31:40;;;;;;;20.65;10.75;;;;;;;11.70;84.57;101513.88;4993547;28;20030;-61
2022/10/08 00:34:10;;;;;;;21.05;11.25;;;;;;;11.79;84.60;101515.97;5000572;28;20348;-61
2022/10/08 00:36:38;;;;;;;22.15;10.55;;;;;;;11.81;84.68;101517.31;5012807;28;20052;-60
2022/10/08 00:39:06;;;;;;;21.70;11.35;;;;;;;11.83;84.40;101511.47;5013049;28;20038;-61
2022/10/08 00:41:37;;;;;;;21.23;11.13;;;;;;;11.76;84.70;101503.50;5012752;28;20053;-62
2022/10/08 00:44:40;;;;;;;19.42;10.85;;;;;;;11.88;84.45;101524.44;5012855;28;20103;-61
2022/10/08 00:47:18;;;;;;;19.65;10.93;;;;;;;11.89;84.74;101523.31;5010727;28;20109;-61
2022/10/08 00:49:44;;;;;;;21.75;10.50;;;;;;;11.90;84.69;101516.63;5012316;28;20679;-61
2022/10/08 00:52:10;;;;;;;21.25;11.30;;;;;;;11.93;84.88;101524.38;5011990;28;20120;-61
2022/10/08 00:54:36;;;;;;;23.33;10.25;;;;;;;11.93;85.47;101525.19;5012315;28;20197;-60
2022/10/08 00:57:01;;;;;;;21.80;11.73;;;;;;;11.97;85.37;101525.41;5012272;28;20163;-61
2022/10/08 00:59:27;;;;;;;21.10;11.30;;;;;;;12.00;85.68;101522.88;5012517;28;20083;-61
2022/10/08 01:01:53;;;;;;;20.23;10.90;;;;;;;12.04;85.95;101520.38;5012082;28;20422;-61
2022/10/08 01:04:18;;;;;;;22.15;10.45;;;;;;;12.06;85.91;101534.72;5012211;28;20037;-61
2022/10/08 01:06:56;;;;;;;21.00;10.40;;;;;;;12.08;86.19;101523.34;5012662;28;20022;-61
2022/10/08 01:09:32;;;;;;;19.50;9.80;;;;;;;12.11;85.76;101531.91;5012529;28;20022;-61
2022/10/08 01:12:26;;;;;;;21.90;10.55;;;;;;;12.08;85.90;101537.22;5010718;28;20037;-61
2022/10/08 01:15:06;;;;;;;22.65;10.80;;;;;;;12.09;86.24;101539.69;5012033;28;20026;-61
2022/10/08 01:17:56;;;;;;;18.40;11.07;;;;;;;12.10;86.35;101541.34;5011635;28;20097;-62
2022/10/08 01:20:40;;;;;;;20.98;10.70;;;;;;;12.09;86.41;101545.22;5012359;28;20045;-61
2022/10/08 01:23:24;;;;;;;22.38;11.20;;;;;;;12.09;86.56;101539.69;5012404;28;20047;-62
2022/10/08 01:26:26;;;;;;;22.98;11.43;;;;;;;12.09;87.32;101538.88;5011960;28;20518;-61
2022/10/08 01:29:20;;;;;;;22.52;11.63;;;;;;;12.06;88.22;101540.28;5011812;28;20057;-62
2022/10/08 01:31:51;;;;;;;21.83;12.05;;;;;;;12.00;89.65;101547.84;5011807;28;20430;-61
2022/10/08 01:34:42;;;;;;;23.65;12.77;;;;;;;11.96;90.82;101552.31;5011919;28;20347;-62
2022/10/08 01:37:11;;;;;;;23.50;12.15;;;;;;;11.82;91.96;101534.75;5012385;28;20022;-61
2022/10/08 01:39:39;;;;;;;20.52;12.90;;;;;;;11.81;93.06;101539.50;5011548;28;20034;-61
2022/10/08 01:42:08;;;;;;;22.15;12.60;;;;;;;11.69;93.91;101526.06;5011566;28;20045;-61
2022/10/08 01:44:39;;;;;;;21.48;13.07;;;;;;;11.60;95.48;101524.22;5025647;28;20079;-61
2022/10/08 01:47:08;;;;;;;22.63;13.02;;;;;;;11.54;96.35;101535.41;5030565;28;20040;-62
2022/10/08 01:49:41;;;;;;;20.30;13.02;;;;;;;11.47;97.09;101525.78;5030891;28;20030;-62
2022/10/08 01:52:38;;;;;;;24.27;13.85;;;;;;;11.48;97.69;101538.53;5030986;28;20018;-62
2022/10/08 01:55:12;;;;;;;21.92;13.13;;;;;;;11.41;98.32;101529.75;5030516;28;20029;-61
2022/10/08 01:57:38;;;;;;;24.25;13.75;;;;;;;11.34;99.48;101532.88;5030899;28;20056;-61
2022/10/08 02:00:07;;;;;;;23.40;14.13;;;;;;;11.27;100.00;101541.50;5031469;28;20018;-60
2022/10/08 02:02:32;;;;;;;21.98;14.32;;;;;;;11.24;100.00;101551.25;5030781;28;20025;-60
2022/10/08 02:04:58;;;;;;;22.77;13.82;;;;;;;11.23;100.00;101552.34;5030942;28;20044;-60
2022/10/08 02:07:30;;;;;;;22.70;14.48;;;;;;;11.21;100.00;101554.59;5031076;28;20111;-60
2022/10/08 02:10:13;;;;;;;22.27;14.13;;;;;;;11.14;100.00;101548.59;5031030;28;20029;-61
2022/10/08 02:12:39;;;;;;;21.95;14.52;;;;;;;11.15;100.00;101547.47;5029357;28;20065;-60
2022/10/08 02:15:12;;;;;;;23.20;14.85;;;;;;;11.14;100.00;101556.88;5030548;28;20026;-60
2022/10/08 02:17:50;;;;;;;22.27;13.95;;;;;;;11.11;100.00;101554.69;5030413;28;20103;-60
2022/10/08 02:20:21;;;;;;;21.27;14.15;;;;;;;11.06;100.00;101560.28;5029077;28;20501;-60
2022/10/08 02:22:57;;;;;;;21.83;13.82;;;;;;;11.04;100.00;101554.22;5030987;28;20446;-61
2022/10/08 02:25:32;;;;;;;21.45;13.75;;;;;;;10.94;100.00;101538.53;5030798;28;20032;-60
2022/10/08 02:28:03;;;;;;;21.40;13.35;;;;;;;10.99;100.00;101552.31;5030336;28;20030;-59
2022/10/08 02:30:37;;;;;;;23.33;13.85;;;;;;;10.98;100.00;101556.22;5029205;28;20436;-59
2022/10/08 02:33:12;;;;;;;22.23;13.98;;;;;;;10.92;100.00;101560.97;5028796;28;20045;-60
2022/10/08 02:35:52;;;;;;;23.08;13.55;;;;;;;10.96;100.00;101563.97;5030612;28;20037;-60
2022/10/08 02:38:24;;;;;;;21.98;12.75;;;;;;;10.98;100.00;101558.97;5029036;28;20462;-60
2022/10/08 02:40:53;;;;;;;21.10;12.63;;;;;;;10.89;100.00;101546.88;5030543;28;20481;-60
2022/10/08 02:43:24;;;;;;;21.58;12.50;;;;;;;10.84;100.00;101549.72;5031194;28;20108;-61
2022/10/08 02:45:58;;;;;;;23.67;12.60;;;;;;;10.86;100.00;101564.09;5031632;28;20036;-60
2022/10/08 02:48:32;;;;;;;21.95;12.68;;;;;;;10.86;100.00;101562.13;5034785;28;20017;-64
2022/10/08 02:51:00;;;;;;;;;;;;;;;10.87;100.00;101562.94;5034978;28;20029;-60
2022/10/08 02:53:26;;;;;;;23.30;13.10;;;;;;;10.87;100.00;101560.19;5034533;28;19925;-60
2022/10/08 02:56:10;;;;;;;20.33;12.40;;;;;;;10.84;100.00;101561.59;5034352;28;20059;-60
2022/10/08 02:58:36;;;;;;;20.27;12.00;;;;;;;10.80;100.00;101559.69;5034216;28;20140;-60
2022/10/08 03:01:26;;;;;;;20.35;11.82;;;;;;;10.73;100.00;101566.41;5034266;28;20123;-60
2022/10/08 03:03:58;;;;;;;23.10;11.93;;;;;;;10.66;100.00;101557.63;5034954;28;20030;-59
2022/10/08 03:06:26;;;;;;;20.70;11.45;;;;;;;10.67;100.00;101555.66;5035197;28;20506;-59
2022/10/08 03:08:57;;;;;;;20.08;11.40;;;;;;;10.54;100.00;101541.38;5034987;28;20036;-60
2022/10/08 03:11:22;;;;;;;19.02;11.30;;;;;;;10.60;100.00;101555.97;5035033;28;20033;-59
2022/10/08 03:13:51;;;;;;;21.83;12.73;;;;;;;10.57;100.00;101562.94;5034452;28;20029;-59
2022/10/08 03:16:22;;;;;;;19.13;11.55;;;;;;;10.51;100.00;101558.56;5034041;28;20041;-61
2022/10/08 03:18:50;;;;;;;20.15;11.70;;;;;;;10.58;100.00;101574.84;5033734;28;20065;-60
2022/10/08 03:21:16;;;;;;;19.73;10.90;;;;;;;10.57;100.00;101576.75;5034096;28;20477;-61
2022/10/08 03:23:41;;;;;;;20.60;11.60;;;;;;;10.58;100.00;101577.59;5034285;28;20029;-61
2022/10/08 03:26:07;;;;;;;20.33;11.30;;;;;;;10.58;100.00;101574.84;5034322;28;20083;-60
2022/10/08 03:28:32;;;;;;;17.73;10.65;;;;;;;10.56;100.00;101575.09;5034115;28;20509;-62
2022/10/08 03:30:57;;;;;;;21.13;11.52;;;;;;;10.53;100.00;101583.16;5033693;28;20055;-61
2022/10/08 03:33:23;;;;;;;17.35;11.40;;;;;;;10.50;100.00;101572.66;5033758;28;20643;-61
2022/10/08 03:35:48;;;;;;;21.33;12.35;;;;;;;10.43;100.00;101573.81;5034136;28;20476;-61
2022/10/08 03:38:14;;;;;;;20.80;12.07;;;;;;;10.44;100.00;101572.72;5033758;28;20074;-62
2022/10/08 03:40:51;;;;;;;19.25;11.82;;;;;;;10.47;100.00;101584.31;5034410;28;20033;-62
2022/10/08 03:43:17;;;;;;;18.27;11.13;;;;;;;10.47;100.00;101587.91;5034128;28;20029;-62
2022/10/08 03:45:51;;;;;;;20.20;11.60;;;;;;;10.43;100.00;101595.94;5033809;28;20476;-61
2022/10/08 03:48:17;;;;;;;18.15;11.07;;;;;;;10.41;100.00;101592.63;5033654;28;20052;-62
2022/10/08 03:50:57;;;;;;;18.80;11.27;;;;;;;10.34;100.00;101594.06;5033894;28;20064;-61
2022/10/08 03:53:23;;;;;;;17.23;10.43;;;;;;;10.27;100.00;101595.19;5034190;28;20026;-61
2022/10/08 03:55:48;;;;;;;18.15;11.63;;;;;;;10.21;100.00;101589.97;5034393;28;20450;-61
2022/10/08 03:58:14;;;;;;;17.13;11.32;;;;;;;10.13;100.00;101597.75;5032931;28;20032;-62
2022/10/08 04:00:40;;;;;;;19.95;11.35;;;;;;;10.06;100.00;101596.44;5033228;28;20096;-61
2022/10/08 04:03:06;;;;;;;19.63;11.52;;;;;;;10.02;100.00;101607.19;5033030;28;20036;-61
2022/10/08 04:05:31;;;;;;;20.15;11.75;;;;;;;9.98;100.00;101608.91;5033239;28;20026;-61
2022/10/08 04:07:56;;;;;;;20.42;11.32;;;;;;;9.90;100.00;101602.00;5033542;28;20048;-60
2022/10/08 04:10:22;;;;;;;20.52;12.23;;;;;;;9.87;100.00;101610.03;5033177;28;20051;-61
2022/10/08 04:12:47;;;;;;;18.75;11.75;;;;;;;9.84;100.00;101601.19;5033136;28;20032;-61
2022/10/08 04:15:13;;;;;;;17.83;11.70;;;;;;;9.81;100.00;101612.00;5033490;28;20522;-61
2022/10/08 04:17:40;;;;;;;19.95;11.70;;;;;;;9.77;100.00;101606.22;5033027;28;20047;-61
2022/10/08 04:20:06;;;;;;;23.17;12.85;;;;;;;9.76;100.00;101615.59;5033274;28;20049;-61
2022/10/08 04:22:31;;;;;;;21.00;11.98;;;;;;;9.75;100.00;101613.13;5033191;28;20080;-61
2022/10/08 04:24:56;;;;;;;19.33;11.90;;;;;;;9.81;100.00;101620.28;5033514;28;20465;-61
2022/10/08 04:27:22;;;;;;;21.40;12.00;;;;;;;9.83;100.00;101618.06;5032912;28;20318;-61
2022/10/08 04:29:47;;;;;;;20.15;12.43;;;;;;;9.88;100.00;101618.03;5032967;28;20021;-61
2022/10/08 04:32:12;;;;;;;20.80;12.25;;;;;;;9.91;100.00;101616.66;5033116;28;20021;-61
2022/10/08 04:34:37;;;;;;;21.75;13.35;;;;;;;9.96;100.00;101622.16;5032856;28;20021;-62
2022/10/08 04:37:03;;;;;;;23.10;13.10;;;;;;;10.01;100.00;101629.59;5033530;28;20034;-61
2022/10/08 04:39:28;;;;;;;22.73;13.75;;;;;;;10.04;100.00;101624.34;5033090;28;20385;-62
2022/10/08 04:41:53;;;;;;;24.90;16.10;;;;;;;10.11;100.00;101622.09;5033160;28;20040;-61
2022/10/08 04:44:19;;;;;;;26.65;16.85;;;;;;;10.20;100.00;101635.34;5032858;28;20170;-61
2022/10/08 04:46:44;;;;;;;27.80;18.15;;;;;;;10.25;100.00;101627.81;5032672;28;20414;-61
2022/10/08 04:49:09;;;;;;;28.17;19.55;;;;;;;10.31;100.00;101634.16;5032574;28;20025;-61
2022/10/08 04:51:35;;;;;;;28.23;18.83;;;;;;;10.35;100.00;101637.16;5032566;28;20039;-62
2022/10/08 04:54:00;;;;;;;31.45;21.08;;;;;;;10.39;100.00;101641.88;5032591;28;20038;-62
2022/10/08 04:56:33;;;;;;;29.25;20.15;;;;;;;10.39;100.00;101646.59;5032611;28;20492;-61
2022/10/08 04:58:58;;;;;;;30.53;20.63;;;;;;;10.42;100.00;101643.28;5032424;28;20076;-61
2022/10/08 05:01:25;;;;;;;31.88;21.92;;;;;;;10.45;100.00;101649.06;5023270;28;20450;-60
2022/10/08 05:03:52;;;;;;;31.30;21.38;;;;;;;10.49;100.00;101645.69;5012559;28;20034;-61
2022/10/08 05:06:21;;;;;;;31.70;22.02;;;;;;;10.48;100.00;101650.41;5012380;28;20520;-61
2022/10/08 05:08:47;;;;;;;34.13;23.23;;;;;;;10.53;100.00;101661.44;5011908;28;20069;-61
2022/10/08 05:11:13;;;;;;;36.00;23.55;;;;;;;10.53;100.00;101664.19;5012619;28;20045;-61
2022/10/08 05:13:38;;;;;;;38.33;25.08;;;;;;;10.54;100.00;101653.97;5012354;28;20022;-61
2022/10/08 05:16:05;;;;;;;33.85;24.30;;;;;;;10.57;100.00;101670.03;5012292;28;20084;-60
2022/10/08 05:18:32;;;;;;;36.58;24.83;;;;;;;10.58;100.00;101672.50;5012417;28;20148;-61
2022/10/08 05:21:09;;;;;;;35.40;25.67;;;;;;;10.57;100.00;101675.56;5012353;28;20505;-61
2022/10/08 05:23:35;;;;;;;36.80;25.45;;;;;;;10.55;100.00;101672.25;5012580;28;20030;-60
2022/10/08 05:26:14;;;;;;;36.38;25.15;;;;;;;10.51;100.00;101674.75;5012744;28;20196;-59
2022/10/08 05:28:40;;;;;;;39.67;25.88;;;;;;;10.49;100.00;101674.19;5012493;28;20026;-60
2022/10/08 05:31:05;;;;;;;44.58;27.10;;;;;;;10.50;100.00;101677.78;5012384;28;20049;-60
2022/10/08 05:33:30;;;;;;;40.17;27.10;;;;;;;10.51;100.00;101682.22;5012230;28;20148;-60
2022/10/08 05:35:56;;;;;;;42.13;28.02;;;;;;;10.52;100.00;101686.63;5011992;28;20033;-61
2022/10/08 05:38:21;;;;;;;40.72;27.30;;;;;;;10.48;100.00;101674.50;5012473;28;20120;-61
2022/10/08 05:40:46;;;;;;;46.25;29.98;;;;;;;10.45;100.00;101685.00;5011417;28;20038;-61
2022/10/08 05:43:12;;;;;;;41.90;28.42;;;;;;;10.42;100.00;101682.81;5013056;28;20026;-60
2022/10/08 05:45:37;;;;;;;45.67;30.92;;;;;;;10.42;100.00;101701.34;5012724;28;20018;-61
2022/10/08 05:48:02;;;;;;;44.30;29.77;;;;;;;10.39;100.00;101696.38;5012266;28;20018;-61
2022/10/08 05:50:28;;;;;;;42.50;29.08;;;;;;;10.35;100.00;101703.56;5012206;28;20032;-61
2022/10/08 05:52:53;;;;;;;47.67;30.83;;;;;;;10.35;100.00;101714.63;5012392;28;20022;-62
2022/10/08 05:55:18;;;;;;;51.03;31.95;;;;;;;10.36;100.00;101713.50;5021370;28;20017;-62
2022/10/08 05:57:44;;;;;;;45.90;30.63;;;;;;;10.34;100.00;101711.03;5032023;28;20068;-62
2022/10/08 06:00:09;;;;;;;44.50;30.20;;;;;;;10.33;100.00;101716.84;5030583;28;20033;-62
2022/10/08 06:02:35;;;;;;;44.17;30.88;;;;;;;10.28;100.00;101715.75;5031402;28;20026;-62
2022/10/08 06:05:00;;;;;;;48.72;32.53;;;;;;;10.30;100.00;101721.00;5031837;28;20458;-63
2022/10/08 06:07:25;;;;;;;47.10;30.92;;;;;;;10.32;100.00;101724.31;5031899;28;20029;-63
2022/10/08 06:09:51;;;;;;;49.33;32.42;;;;;;;10.32;100.00;101726.25;5032026;28;20464;-63
2022/10/08 06:12:16;;;;;;;48.58;32.03;;;;;;;10.30;100.00;101723.75;5031832;28;20080;-63
2022/10/08 06:14:42;;;;;;;55.67;33.55;;;;;;;10.31;100.00;101736.47;5031726;28;20107;-62
2022/10/08 06:17:07;;;;;;;50.65;33.47;;;;;;;10.35;100.00;101739.50;5031910;28;20045;-62
2022/10/08 06:19:35;;;;;;;49.88;33.53;;;;;;;10.23;100.00;101723.25;5031987;28;20517;-61
2022/10/08 06:22:01;;;;;;;50.60;32.90;;;;;;;10.32;100.00;101742.84;5031345;28;20033;-61
2022/10/08 06:24:26;;;;;;;50.25;32.53;;;;;;;10.28;100.00;101743.41;5032013;28;20083;-62
2022/10/08 06:26:52;;;;;;;51.45;32.90;;;;;;;10.35;100.00;101753.34;5031709;28;20041;-62
2022/10/08 06:29:17;;;;;;;55.65;33.00;;;;;;;10.35;100.00;101758.88;5031454;28;20362;-60
2022/10/08 06:31:44;;;;;;;47.08;31.27;;;;;;;10.33;100.00;101761.13;5031082;28;20378;-61
2022/10/08 06:34:09;;;;;;;49.88;33.47;;;;;;;10.28;100.00;101762.78;5031471;28;20037;-61
2022/10/08 06:36:36;;;;;;;48.60;30.95;;;;;;;10.29;100.00;101766.38;5031226;28;20025;-62
2022/10/08 06:39:05;;;;;;;46.90;31.20;;;;;;;10.29;100.00;101771.91;5031770;28;20591;-62
2022/10/08 06:41:33;;;;;;;49.20;32.30;;;;;;;10.33;100.00;101783.25;5031069;28;20033;-62
2022/10/08 06:43:59;;;;;;;51.35;32.60;;;;;;;10.38;100.00;101784.09;5031973;28;20045;-62
2022/10/08 06:46:25;;;;;;;50.05;32.33;;;;;;;10.39;100.00;101782.13;5031688;28;20509;-62
2022/10/08 06:48:50;;;;;;;47.28;29.95;;;;;;;10.33;100.00;101783.25;5031229;28;20109;-62
2022/10/08 06:51:17;;;;;;;49.80;31.40;;;;;;;10.37;100.00;101792.63;5031277;28;20060;-61
2022/10/08 06:53:46;;;;;;;48.55;31.30;;;;;;;10.39;100.00;101793.19;5031042;28;20034;-63
2022/10/08 06:56:14;;;;;;;51.05;30.52;;;;;;;10.33;100.00;101786.81;5015131;28;20026;-62
2022/10/08 06:58:41;;;;;;;46.58;30.38;;;;;;;10.42;100.00;101812.00;5011063;28;20026;-62
2022/10/08 07:01:11;;;;;;;45.60;30.65;;;;;;;10.41;100.00;101805.63;5011624;28;20022;-62
2022/10/08 07:03:36;;;;;;;50.05;30.10;;;;;;;10.54;100.00;101822.75;5011371;28;20433;-61
2022/10/08 07:06:04;;;;;;;51.03;31.50;;;;;;;10.59;100.00;101814.41;5011239;28;20049;-61
2022/10/08 07:08:30;;;;;;;46.70;29.65;;;;;;;10.68;100.00;101823.78;5010864;28;20052;-61
2022/10/08 07:11:02;;;;;;;43.65;29.10;;;;;;;10.72;100.00;101832.38;5011041;28;20022;-62
2022/10/08 07:13:28;;;;;;;47.40;28.10;;;;;;;10.77;100.00;101837.88;5011196;28;20036;-62
2022/10/08 07:16:02;;;;;;;43.15;26.50;;;;;;;10.75;100.00;101840.94;5011037;28;20109;-62
2022/10/08 07:18:27;;;;;;;43.60;26.85;;;;;;;10.73;100.00;101845.94;5011187;28;20057;-62
2022/10/08 07:20:55;;;;;;;41.97;26.17;;;;;;;10.66;100.00;101839.03;5011158;28;20022;-62
2022/10/08 07:23:20;;;;;;;42.13;26.92;;;;;;;10.69;100.00;101838.47;5011140;28;20026;-61
2022/10/08 07:25:57;;;;;;;42.08;24.70;;;;;;;10.69;100.00;101839.28;5021927;28;20079;-61
2022/10/08 07:28:24;;;;;;;37.60;24.30;;;;;;;10.82;100.00;101854.47;5020401;28;20088;-60
2022/10/08 07:30:49;;;;;;;38.72;22.38;;;;;;;10.87;100.00;101856.38;5003056;28;20022;-61
2022/10/08 07:33:14;;;;;;;34.40;22.17;;;;;;;10.93;100.00;101866.34;5005019;28;20017;-61
2022/10/08 07:35:40;;;;;;;37.28;21.73;;;;;;;10.99;100.00;101864.38;5008038;28;20034;-61
2022/10/08 07:38:05;;;;;;;30.10;19.52;;;;;;;11.07;100.00;101877.63;4995008;28;20026;-61
2022/10/08 07:40:30;;;;;;;33.72;19.80;;;;;;;11.14;100.00;101869.81;4994812;28;20030;-62
2022/10/08 07:42:56;;;;;;;28.73;18.65;;;;;;;11.16;100.00;101872.31;4993387;28;20113;-62
2022/10/08 07:45:21;;;;;;;29.70;17.90;;;;;;;11.19;100.00;101874.50;4995080;28;20026;-61
2022/10/08 07:47:46;;;;;;;30.48;18.40;;;;;;;11.24;100.00;101882.81;5001437;28;20100;-61
2022/10/08 07:50:11;;;;;;;30.40;17.40;;;;;;;11.30;100.00;101889.13;5003307;28;20064;-60
2022/10/08 07:52:37;;;;;;;30.52;17.48;;;;;;;11.33;100.00;101883.03;5004047;28;20117;-61
2022/10/08 07:55:02;;;;;;;31.05;17.77;;;;;;;11.38;100.00;101888.53;5006965;28;20402;-61
2022/10/08 07:57:28;;;;;;;25.88;14.18;;;;;;;11.40;100.00;101891.84;5005398;28;20410;-61
2022/10/08 07:59:53;;;;;;;25.30;13.95;;;;;;;11.43;100.00;101891.28;5005240;28;20029;-60
2022/10/08 08:02:18;;;;;;;24.58;14.48;;;;;;;11.49;100.00;101892.88;5005610;28;20022;-60
2022/10/08 08:04:43;;;;;;;28.85;14.57;;;;;;;11.51;100.00;101896.22;5000713;28;20398;-61
2022/10/08 08:07:09;;;;;;;26.90;13.57;;;;;;;11.57;100.00;101896.19;5005469;28;20114;-61
2022/10/08 08:09:34;;;;;;;25.90;13.75;;;;;;;11.61;100.00;101902.78;5002822;28;20049;-60
2022/10/08 08:11:59;;;;;;;24.25;13.70;;;;;;;11.67;100.00;101916.34;5001503;28;20038;-61
2022/10/08 08:14:25;;;;;;;24.33;13.10;;;;;;;11.71;100.00;101913.81;5004714;28;20537;-61
2022/10/08 08:16:50;;;;;;;25.85;12.98;;;;;;;11.76;99.09;101912.97;4994090;28;20035;-61
2022/10/08 08:19:15;;;;;;;22.48;12.40;;;;;;;11.82;97.81;101920.97;4994200;28;20114;-61
2022/10/08 08:21:40;;;;;;;20.60;11.88;;;;;;;11.84;96.92;101906.78;4994161;28;20026;-60
2022/10/08 08:24:12;;;;;;;21.67;12.90;;;;;;;11.90;96.62;101921.44;4994388;28;20069;-60
2022/10/08 08:26:39;;;;;;;23.75;12.82;;;;;;;11.95;97.31;101930.56;4993941;28;20101;-62
2022/10/08 08:29:08;;;;;;;21.10;11.55;;;;;;;11.96;96.55;101921.13;4991766;28;20110;-62
2022/10/08 08:31:36;;;;;;;21.95;11.10;;;;;;;12.06;95.71;101931.31;5002908;28;20030;-62
2022/10/08 08:34:05;;;;;;;26.48;11.40;;;;;;;12.11;93.89;101942.41;5007610;28;20030;-61
2022/10/08 08:36:34;;;;;;;23.25;10.85;;;;;;;12.13;92.99;101942.09;4999668;28;20037;-61
2022/10/08 08:39:00;;;;;;;23.17;10.27;;;;;;;12.21;91.09;101952.56;4994244;28;20482;-60
2022/10/08 08:41:47;;;;;;;21.75;10.00;;;;;;;12.28;91.12;101955.84;4994308;28;20030;-61
2022/10/08 08:44:19;;;;;;;19.77;10.30;;;;;;;12.36;91.06;101964.66;4993515;28;20046;-62
2022/10/08 08:47:08;;;;;;;19.95;9.75;;;;;;;12.36;89.59;101954.38;4994273;28;20106;-63
2022/10/08 08:49:44;;;;;;;17.27;9.15;;;;;;;12.51;88.16;101963.72;4994078;28;20431;-61
2022/10/08 08:52:15;;;;;;;18.08;9.27;;;;;;;12.52;88.26;101963.41;4993950;28;20065;-63
2022/10/08 08:54:48;;;;;;;19.48;9.13;;;;;;;12.57;85.43;101974.44;4992578;28;20045;-61
2022/10/08 08:57:35;;;;;;;18.40;8.70;;;;;;;12.67;85.00;101973.53;4992685;28;20030;-61
2022/10/08 09:00:16;;;;;;;17.25;8.43;;;;;;;12.70;84.57;101978.50;4992702;28;20034;-62
2022/10/08 09:02:52;;;;;;;16.65;9.05;;;;;;;12.64;83.27;101957.44;5007556;28;20033;-62
2022/10/08 09:05:19;;;;;;;16.20;9.05;;;;;;;12.71;82.58;101979.31;4992042;28;20091;-62
2022/10/08 09:07:52;;;;;;;16.40;8.82;;;;;;;12.76;83.76;101980.09;4991268;28;20431;-62
2022/10/08 09:10:23;;;;;;;16.70;7.85;;;;;;;12.89;81.22;101977.75;4993147;28;20516;-61
2022/10/08 09:12:52;;;;;;;15.20;7.47;;;;;;;12.97;81.27;101979.06;5003443;28;20037;-61
2022/10/08 09:15:32;;;;;;;17.95;8.05;;;;;;;12.98;79.90;101984.34;4998004;28;20120;-61
2022/10/08 09:18:01;;;;;;;16.65;7.90;;;;;;;13.13;78.03;101988.84;4991250;28;20097;-61
2022/10/08 09:20:27;;;;;;;18.42;8.00;;;;;;;13.19;78.29;101987.69;4991850;28;20023;-61
2022/10/08 09:22:53;;;;;;;17.88;8.43;;;;;;;13.25;76.79;101997.63;4991880;28;20034;-61
2022/10/08 09:25:23;;;;;;;18.35;8.20;;;;;;;13.28;76.22;101987.84;4992090;28;20030;-61
2022/10/08 09:27:55;;;;;;;18.13;8.50;;;;;;;13.48;77.11;102002.66;4990210;28;20046;-61
2022/10/08 09:30:23;;;;;;;17.95;8.45;;;;;;;13.66;73.57;101998.25;4991363;28;20026;-61
2022/10/08 09:32:50;;;;;;;15.05;8.35;;;;;;;13.82;70.03;101998.88;4990705;28;20042;-60
2022/10/08 09:35:15;;;;;;;19.73;8.20;;;;;;;13.93;71.78;102011.50;4990710;28;20034;-61
2022/10/08 09:37:45;;;;;;;14.45;7.95;;;;;;;13.87;72.33;102005.19;4990670;28;20030;-61
2022/10/08 09:40:10;;;;;;;17.30;8.02;;;;;;;13.89;72.62;102010.44;4990860;28;20558;-61
2022/10/08 09:42:35;;;;;;;19.53;8.60;;;;;;;13.95;72.21;102013.97;4990751;28;20212;-61
2022/10/08 09:45:02;;;;;;;18.10;8.20;;;;;;;13.94;71.27;102017.88;4990865;28;20289;-61
2022/10/08 09:47:29;;;;;;;13.05;8.15;;;;;;;13.91;72.32;102015.69;4991281;28;20061;-61
2022/10/08 09:50:11;;;;;;;15.23;8.70;;;;;;;13.83;73.46;102031.13;4991274;28;20473;-61
2022/10/08 09:52:39;;;;;;;15.27;8.95;;;;;;;13.60;72.68;102016.97;4991604;28;20113;-60
2022/10/08 09:55:15;;;;;;;15.65;8.43;;;;;;;13.52;73.35;102037.91;4991536;28;20517;-61
2022/10/08 09:57:55;;;;;;;19.70;8.65;;;;;;;13.49;72.49;102051.56;4989773;28;20031;-61
2022/10/08 10:00:35;;;;;;;15.40;8.20;;;;;;;13.32;73.16;102050.06;4990869;28;20419;-61
2022/10/08 10:03:04;;;;;;;18.90;8.57;;;;;;;13.31;73.59;102050.38;4990821;28;20050;-63
2022/10/08 10:05:34;;;;;;;14.57;7.80;;;;;;;13.33;73.78;102039.75;4990785;28;20128;-61
2022/10/08 10:08:01;;;;;;;16.73;8.32;;;;;;;13.57;71.51;102054.53;4990505;28;20057;-62
2022/10/08 10:10:45;;;;;;;13.55;7.80;;;;;;;13.71;67.48;102054.63;4990667;28;20423;-62
2022/10/08 10:13:19;;;;;;;16.05;7.90;;;;;;;13.80;67.14;102063.13;4991371;28;20034;-62
2022/10/08 10:15:52;;;;;;;12.98;7.90;;;;;;;13.83;66.89;102061.72;4990750;28;20050;-61
2022/10/08 10:18:21;;;;;;;15.15;8.13;;;;;;;13.83;65.35;102054.19;4990582;28;20046;-61
2022/10/08 10:20:52;;;;;;;16.17;7.80;;;;;;;14.02;66.11;102051.44;4990523;28;20042;-61
2022/10/08 10:23:23;;;;;;;14.48;7.88;;;;;;;14.16;65.40;102064.59;4990613;28;20502;-61
2022/10/08 10:25:53;;;;;;;17.70;8.20;;;;;;;14.17;65.97;102050.34;4989998;28;20038;-61
2022/10/08 10:28:37;;;;;;;13.10;8.52;;;;;;;14.24;65.25;102057.53;4990863;28;20113;-61
2022/10/08 10:31:06;;;;;;;17.13;8.10;;;;;;;14.33;66.68;102062.09;4991080;28;20470;-61
2022/10/08 10:33:36;;;;;;;12.93;7.80;;;;;;;14.24;64.65;102054.75;4990517;28;20036;-60
2022/10/08 10:36:07;;;;;;;15.57;7.80;;;;;;;14.15;61.11;102061.00;4989181;28;20041;-61
2022/10/08 10:38:39;;;;;;;14.27;7.80;;;;;;;14.05;62.03;102047.22;4989102;28;20077;-61
2022/10/08 10:41:28;;;;;;;17.98;8.18;;;;;;;14.18;60.78;102071.50;4990770;28;20093;-60
2022/10/08 10:43:59;;;;;;;15.65;7.68;;;;;;;14.10;60.16;102029.63;4982548;28;20117;-61
2022/10/08 10:46:35;;;;;;;16.30;8.20;;;;;;;14.41;61.00;102048.59;4990562;28;20038;-61
2022/10/08 10:49:00;;;;;;;15.98;7.80;;;;;;;14.63;59.43;102073.06;4988956;28;20038;-61
2022/10/08 10:51:37;;;;;;;14.18;8.02;;;;;;;14.65;59.33;102077.19;4990249;28;20123;-60
2022/10/08 10:54:17;;;;;;;14.65;7.85;;;;;;;14.67;61.14;102065.75;4990254;28;20386;-60
2022/10/08 10:56:54;;;;;;;14.30;7.70;;;;;;;14.66;60.19;102061.28;4990133;28;20479;-61
2022/10/08 10:59:35;;;;;;;14.85;8.13;;;;;;;14.81;60.80;102077.78;4990513;28;20046;-61
2022/10/08 11:02:21;;;;;;;12.25;8.15;;;;;;;14.93;60.74;102073.66;4990292;28;20041;-61
2022/10/08 11:05:05;;;;;;;18.35;8.85;;;;;;;14.84;60.82;102050.44;4989380;28;20545;-61
2022/10/08 11:08:01;;;;;;;17.08;8.85;;;;;;;14.95;61.03;102074.19;4991844;28;20139;-61
2022/10/08 11:10:59;;;;;;;18.52;8.30;;;;;;;14.86;60.67;102073.25;4994133;28;20030;-61
2022/10/08 11:13:42;;;;;;;20.33;8.40;;;;;;;14.99;59.30;102069.69;4990836;28;20053;-61
2022/10/08 11:16:26;;;;;;;17.02;8.40;;;;;;;15.20;60.36;102070.13;4992547;28;20094;-60
2022/10/08 11:18:57;;;;;;;13.35;7.85;;;;;;;15.17;58.34;102059.56;4994120;28;20654;-62
2022/10/08 11:21:30;;;;;;;17.05;8.20;;;;;;;15.34;57.41;102075.69;4997140;28;20132;-61